<?xml version="1.0" encoding="UTF-8" standalone="no" ?>
<gpx xmlns="http://www.topografix.com/GPX/1/1" xmlns:xsi="http://www.w3.org/2001/XMLSchema-instance" xsi:schemaLocation="http://www.topografix.com/GPX/1/1 http://www.topografix.com/GPX/1/1/gpx.xsd" version="1.1" creator="VisuGPX - https://www.visugpx.com">
  <metadata>
    <name>Tour de France 2019</name>
    <desc><![CDATA[4272km en 2 mois en tandem avec notre petit chien dans le panier avant]]></desc>
  </metadata>
  <trk>
    <name><![CDATA[Tracé 20191102-080648]]></name>
    <trkseg>
      <trkpt lat="45.52923" lon="0.6622">
        <ele>224.158</ele>
        <time>2019-11-02T07:13:17Z</time>
      </trkpt>
      <trkpt lat="45.52834" lon="0.66146">
        <ele>224.592</ele>
        <time>2019-11-02T07:13:47Z</time>
      </trkpt>
      <trkpt lat="45.52687" lon="0.66059">
        <ele>206.461</ele>
        <time>2019-11-02T07:14:17Z</time>
      </trkpt>
      <trkpt lat="45.52524" lon="0.66001">
        <ele>191.864</ele>
        <time>2019-11-02T07:14:47Z</time>
      </trkpt>
      <trkpt lat="45.52405" lon="0.66043">
        <ele>182.998</ele>
        <time>2019-11-02T07:15:17Z</time>
      </trkpt>
      <trkpt lat="45.52224" lon="0.66016">
        <ele>182.075</ele>
        <time>2019-11-02T07:15:47Z</time>
      </trkpt>
      <trkpt lat="45.52082" lon="0.65784">
        <ele>172.153</ele>
        <time>2019-11-02T07:16:17Z</time>
      </trkpt>
      <trkpt lat="45.51939" lon="0.65438">
        <ele>160.722</ele>
        <time>2019-11-02T07:16:50Z</time>
      </trkpt>
      <trkpt lat="45.51877" lon="0.65195">
        <ele>147.183</ele>
        <time>2019-11-02T07:17:20Z</time>
      </trkpt>
      <trkpt lat="45.52003" lon="0.65181">
        <ele>146.557</ele>
        <time>2019-11-02T07:17:50Z</time>
      </trkpt>
      <trkpt lat="45.52192" lon="0.65067">
        <ele>159.018</ele>
        <time>2019-11-02T07:18:20Z</time>
      </trkpt>
      <trkpt lat="45.5238" lon="0.64968">
        <ele>167.125</ele>
        <time>2019-11-02T07:18:50Z</time>
      </trkpt>
      <trkpt lat="45.52501" lon="0.64796">
        <ele>147.048</ele>
        <time>2019-11-02T07:19:20Z</time>
      </trkpt>
      <trkpt lat="45.52581" lon="0.64608">
        <ele>139.629</ele>
        <time>2019-11-02T07:19:50Z</time>
      </trkpt>
      <trkpt lat="45.52688" lon="0.64438">
        <ele>143.638</ele>
        <time>2019-11-02T07:20:20Z</time>
      </trkpt>
      <trkpt lat="45.52853" lon="0.6435">
        <ele>146.904</ele>
        <time>2019-11-02T07:20:50Z</time>
      </trkpt>
      <trkpt lat="45.52963" lon="0.64155">
        <ele>150.399</ele>
        <time>2019-11-02T07:21:20Z</time>
      </trkpt>
      <trkpt lat="45.5301" lon="0.6394">
        <ele>152.924</ele>
        <time>2019-11-02T07:21:50Z</time>
      </trkpt>
      <trkpt lat="45.5296" lon="0.63747">
        <ele>153.599</ele>
        <time>2019-11-02T07:22:20Z</time>
      </trkpt>
      <trkpt lat="45.52915" lon="0.63577">
        <ele>154.641</ele>
        <time>2019-11-02T07:22:50Z</time>
      </trkpt>
      <trkpt lat="45.53005" lon="0.63259">
        <ele>135.583</ele>
        <time>2019-11-02T07:23:23Z</time>
      </trkpt>
      <trkpt lat="45.53117" lon="0.63007">
        <ele>133.64</ele>
        <time>2019-11-02T07:23:53Z</time>
      </trkpt>
      <trkpt lat="45.53189" lon="0.62762">
        <ele>139.557</ele>
        <time>2019-11-02T07:24:23Z</time>
      </trkpt>
      <trkpt lat="45.53311" lon="0.62572">
        <ele>136.763</ele>
        <time>2019-11-02T07:24:53Z</time>
      </trkpt>
      <trkpt lat="45.534" lon="0.62342">
        <ele>129.801</ele>
        <time>2019-11-02T07:25:23Z</time>
      </trkpt>
      <trkpt lat="45.53471" lon="0.62104">
        <ele>140.828</ele>
        <time>2019-11-02T07:25:53Z</time>
      </trkpt>
      <trkpt lat="45.53477" lon="0.61834">
        <ele>138.614</ele>
        <time>2019-11-02T07:26:23Z</time>
      </trkpt>
      <trkpt lat="45.53541" lon="0.61598">
        <ele>132.62</ele>
        <time>2019-11-02T07:26:53Z</time>
      </trkpt>
      <trkpt lat="45.53663" lon="0.61419">
        <ele>130.042</ele>
        <time>2019-11-02T07:27:23Z</time>
      </trkpt>
      <trkpt lat="45.5382" lon="0.61303">
        <ele>130.234</ele>
        <time>2019-11-02T07:27:53Z</time>
      </trkpt>
      <trkpt lat="45.53953" lon="0.6116">
        <ele>139.514</ele>
        <time>2019-11-02T07:28:23Z</time>
      </trkpt>
      <trkpt lat="45.54055" lon="0.60997">
        <ele>154.048</ele>
        <time>2019-11-02T07:28:53Z</time>
      </trkpt>
      <trkpt lat="45.54098" lon="0.6078">
        <ele>172.796</ele>
        <time>2019-11-02T07:29:23Z</time>
      </trkpt>
      <trkpt lat="45.54057" lon="0.6051">
        <ele>165.27</ele>
        <time>2019-11-02T07:29:56Z</time>
      </trkpt>
      <trkpt lat="45.54106" lon="0.60344">
        <ele>136.612</ele>
        <time>2019-11-02T07:30:26Z</time>
      </trkpt>
      <trkpt lat="45.54178" lon="0.60201">
        <ele>142.231</ele>
        <time>2019-11-02T07:30:56Z</time>
      </trkpt>
      <trkpt lat="45.54286" lon="0.60044">
        <ele>139.918</ele>
        <time>2019-11-02T07:31:26Z</time>
      </trkpt>
      <trkpt lat="45.54392" lon="0.59888">
        <ele>139.624</ele>
        <time>2019-11-02T07:31:56Z</time>
      </trkpt>
      <trkpt lat="45.54494" lon="0.59737">
        <ele>137.15</ele>
        <time>2019-11-02T07:32:26Z</time>
      </trkpt>
      <trkpt lat="45.54602" lon="0.59578">
        <ele>134.455</ele>
        <time>2019-11-02T07:32:56Z</time>
      </trkpt>
      <trkpt lat="45.5469" lon="0.59388">
        <ele>133.968</ele>
        <time>2019-11-02T07:33:26Z</time>
      </trkpt>
      <trkpt lat="45.54744" lon="0.59168">
        <ele>135.837</ele>
        <time>2019-11-02T07:33:56Z</time>
      </trkpt>
      <trkpt lat="45.54826" lon="0.58947">
        <ele>129.867</ele>
        <time>2019-11-02T07:34:26Z</time>
      </trkpt>
      <trkpt lat="45.5499" lon="0.58809">
        <ele>129.684</ele>
        <time>2019-11-02T07:34:56Z</time>
      </trkpt>
      <trkpt lat="45.55158" lon="0.58591">
        <ele>125.99</ele>
        <time>2019-11-02T07:35:26Z</time>
      </trkpt>
      <trkpt lat="45.55185" lon="0.5834">
        <ele>132.291</ele>
        <time>2019-11-02T07:35:56Z</time>
      </trkpt>
      <trkpt lat="45.55204" lon="0.58177">
        <ele>128.425</ele>
        <time>2019-11-02T07:36:26Z</time>
      </trkpt>
      <trkpt lat="45.55256" lon="0.58002">
        <ele>129.973</ele>
        <time>2019-11-02T07:36:59Z</time>
      </trkpt>
      <trkpt lat="45.55315" lon="0.57813">
        <ele>128.179</ele>
        <time>2019-11-02T07:37:29Z</time>
      </trkpt>
      <trkpt lat="45.55382" lon="0.5761">
        <ele>130.67</ele>
        <time>2019-11-02T07:37:59Z</time>
      </trkpt>
      <trkpt lat="45.5546" lon="0.57414">
        <ele>135.041</ele>
        <time>2019-11-02T07:38:29Z</time>
      </trkpt>
      <trkpt lat="45.55598" lon="0.5728">
        <ele>134.919</ele>
        <time>2019-11-02T07:38:59Z</time>
      </trkpt>
      <trkpt lat="45.55776" lon="0.57291">
        <ele>130.375</ele>
        <time>2019-11-02T07:39:29Z</time>
      </trkpt>
      <trkpt lat="45.55956" lon="0.57315">
        <ele>127.009</ele>
        <time>2019-11-02T07:39:59Z</time>
      </trkpt>
      <trkpt lat="45.56087" lon="0.57252">
        <ele>134.515</ele>
        <time>2019-11-02T07:40:29Z</time>
      </trkpt>
      <trkpt lat="45.5623" lon="0.57184">
        <ele>141.417</ele>
        <time>2019-11-02T07:40:59Z</time>
      </trkpt>
      <trkpt lat="45.56398" lon="0.57051">
        <ele>134.86</ele>
        <time>2019-11-02T07:41:29Z</time>
      </trkpt>
      <trkpt lat="45.56511" lon="0.56881">
        <ele>138.271</ele>
        <time>2019-11-02T07:41:59Z</time>
      </trkpt>
      <trkpt lat="45.56575" lon="0.56659">
        <ele>139.83</ele>
        <time>2019-11-02T07:42:29Z</time>
      </trkpt>
      <trkpt lat="45.56622" lon="0.5643">
        <ele>128.828</ele>
        <time>2019-11-02T07:42:59Z</time>
      </trkpt>
      <trkpt lat="45.56749" lon="0.56229">
        <ele>124.06</ele>
        <time>2019-11-02T07:43:32Z</time>
      </trkpt>
      <trkpt lat="45.56887" lon="0.56065">
        <ele>118.706</ele>
        <time>2019-11-02T07:44:02Z</time>
      </trkpt>
      <trkpt lat="45.57012" lon="0.55913">
        <ele>124.162</ele>
        <time>2019-11-02T07:44:32Z</time>
      </trkpt>
      <trkpt lat="45.57146" lon="0.55774">
        <ele>123.047</ele>
        <time>2019-11-02T07:45:02Z</time>
      </trkpt>
      <trkpt lat="45.5725" lon="0.55634">
        <ele>133.292</ele>
        <time>2019-11-02T07:45:32Z</time>
      </trkpt>
      <trkpt lat="45.57362" lon="0.55497">
        <ele>133.856</ele>
        <time>2019-11-02T07:46:02Z</time>
      </trkpt>
      <trkpt lat="45.57487" lon="0.5536">
        <ele>129.969</ele>
        <time>2019-11-02T07:46:32Z</time>
      </trkpt>
      <trkpt lat="45.57577" lon="0.55177">
        <ele>122.067</ele>
        <time>2019-11-02T07:47:02Z</time>
      </trkpt>
      <trkpt lat="45.57663" lon="0.54959">
        <ele>120.274</ele>
        <time>2019-11-02T07:47:32Z</time>
      </trkpt>
      <trkpt lat="45.57729" lon="0.54684">
        <ele>119.913</ele>
        <time>2019-11-02T07:48:02Z</time>
      </trkpt>
      <trkpt lat="45.57835" lon="0.54491">
        <ele>118.585</ele>
        <time>2019-11-02T07:48:32Z</time>
      </trkpt>
      <trkpt lat="45.57963" lon="0.5432">
        <ele>122.919</ele>
        <time>2019-11-02T07:49:02Z</time>
      </trkpt>
      <trkpt lat="45.58113" lon="0.54218">
        <ele>127.554</ele>
        <time>2019-11-02T07:49:32Z</time>
      </trkpt>
      <trkpt lat="45.58261" lon="0.5407">
        <ele>120.987</ele>
        <time>2019-11-02T07:50:05Z</time>
      </trkpt>
      <trkpt lat="45.58324" lon="0.53862">
        <ele>132.27</ele>
        <time>2019-11-02T07:50:35Z</time>
      </trkpt>
      <trkpt lat="45.58384" lon="0.53622">
        <ele>145.145</ele>
        <time>2019-11-02T07:51:05Z</time>
      </trkpt>
      <trkpt lat="45.58415" lon="0.53363">
        <ele>130.179</ele>
        <time>2019-11-02T07:51:35Z</time>
      </trkpt>
      <trkpt lat="45.58485" lon="0.53163">
        <ele>122.463</ele>
        <time>2019-11-02T07:52:05Z</time>
      </trkpt>
      <trkpt lat="45.58569" lon="0.52954">
        <ele>123.159</ele>
        <time>2019-11-02T07:52:35Z</time>
      </trkpt>
      <trkpt lat="45.58679" lon="0.52807">
        <ele>119.902</ele>
        <time>2019-11-02T07:53:05Z</time>
      </trkpt>
      <trkpt lat="45.58795" lon="0.52653">
        <ele>120.872</ele>
        <time>2019-11-02T07:53:35Z</time>
      </trkpt>
      <trkpt lat="45.5887" lon="0.52441">
        <ele>115.35</ele>
        <time>2019-11-02T07:54:05Z</time>
      </trkpt>
      <trkpt lat="45.58925" lon="0.52222">
        <ele>115.744</ele>
        <time>2019-11-02T07:54:35Z</time>
      </trkpt>
      <trkpt lat="45.58924" lon="0.51987">
        <ele>119.141</ele>
        <time>2019-11-02T07:55:05Z</time>
      </trkpt>
      <trkpt lat="45.58989" lon="0.51799">
        <ele>118.626</ele>
        <time>2019-11-02T07:55:35Z</time>
      </trkpt>
      <trkpt lat="45.59091" lon="0.51659">
        <ele>117.997</ele>
        <time>2019-11-02T07:56:05Z</time>
      </trkpt>
      <trkpt lat="45.59194" lon="0.51523">
        <ele>119.042</ele>
        <time>2019-11-02T07:56:35Z</time>
      </trkpt>
      <trkpt lat="45.59299" lon="0.51379">
        <ele>118.126</ele>
        <time>2019-11-02T07:57:08Z</time>
      </trkpt>
      <trkpt lat="45.59394" lon="0.51253">
        <ele>122.896</ele>
        <time>2019-11-02T07:57:38Z</time>
      </trkpt>
      <trkpt lat="45.59509" lon="0.51098">
        <ele>120.123</ele>
        <time>2019-11-02T07:58:08Z</time>
      </trkpt>
      <trkpt lat="45.59605" lon="0.50972">
        <ele>116.723</ele>
        <time>2019-11-02T07:58:38Z</time>
      </trkpt>
      <trkpt lat="45.59683" lon="0.50824">
        <ele>118.195</ele>
        <time>2019-11-02T07:59:08Z</time>
      </trkpt>
      <trkpt lat="45.5975" lon="0.50646">
        <ele>118.215</ele>
        <time>2019-11-02T07:59:38Z</time>
      </trkpt>
      <trkpt lat="45.59814" lon="0.50471">
        <ele>117.333</ele>
        <time>2019-11-02T08:00:08Z</time>
      </trkpt>
      <trkpt lat="45.59873" lon="0.50312">
        <ele>117.497</ele>
        <time>2019-11-02T08:00:38Z</time>
      </trkpt>
      <trkpt lat="45.59931" lon="0.50159">
        <ele>120.31</ele>
        <time>2019-11-02T08:01:08Z</time>
      </trkpt>
      <trkpt lat="45.60003" lon="0.49968">
        <ele>117.904</ele>
        <time>2019-11-02T08:01:38Z</time>
      </trkpt>
      <trkpt lat="45.60062" lon="0.49846">
        <ele>116.468</ele>
        <time>2019-11-02T08:02:14Z</time>
      </trkpt>
      <trkpt lat="45.60108" lon="0.49723">
        <ele>127.38</ele>
        <time>2019-11-02T08:02:44Z</time>
      </trkpt>
      <trkpt lat="45.60165" lon="0.49577">
        <ele>132.748</ele>
        <time>2019-11-02T08:03:14Z</time>
      </trkpt>
      <trkpt lat="45.60246" lon="0.49394">
        <ele>128.676</ele>
        <time>2019-11-02T08:03:47Z</time>
      </trkpt>
      <trkpt lat="45.60322" lon="0.49205">
        <ele>127.844</ele>
        <time>2019-11-02T08:04:17Z</time>
      </trkpt>
      <trkpt lat="45.60411" lon="0.48995">
        <ele>115.264</ele>
        <time>2019-11-02T08:04:47Z</time>
      </trkpt>
      <trkpt lat="45.60469" lon="0.48795">
        <ele>109.907</ele>
        <time>2019-11-02T08:05:17Z</time>
      </trkpt>
      <trkpt lat="45.6051" lon="0.48602">
        <ele>118.698</ele>
        <time>2019-11-02T08:05:47Z</time>
      </trkpt>
      <trkpt lat="45.60516" lon="0.48469">
        <ele>112.209</ele>
        <time>2019-11-02T08:06:17Z</time>
      </trkpt>
      <trkpt lat="45.60553" lon="0.48307">
        <ele>112.142</ele>
        <time>2019-11-02T08:06:47Z</time>
      </trkpt>
      <trkpt lat="45.60576" lon="0.48148">
        <ele>116.891</ele>
        <time>2019-11-02T08:07:17Z</time>
      </trkpt>
      <trkpt lat="45.60626" lon="0.47945">
        <ele>126.674</ele>
        <time>2019-11-02T08:07:47Z</time>
      </trkpt>
      <trkpt lat="45.60685" lon="0.47765">
        <ele>114.898</ele>
        <time>2019-11-02T08:08:17Z</time>
      </trkpt>
      <trkpt lat="45.60762" lon="0.47596">
        <ele>111.147</ele>
        <time>2019-11-02T08:08:47Z</time>
      </trkpt>
      <trkpt lat="45.60875" lon="0.47435">
        <ele>108.116</ele>
        <time>2019-11-02T08:09:17Z</time>
      </trkpt>
      <trkpt lat="45.60966" lon="0.47268">
        <ele>105.309</ele>
        <time>2019-11-02T08:09:47Z</time>
      </trkpt>
      <trkpt lat="45.61045" lon="0.47062">
        <ele>106.203</ele>
        <time>2019-11-02T08:10:20Z</time>
      </trkpt>
      <trkpt lat="45.61116" lon="0.46885">
        <ele>101.493</ele>
        <time>2019-11-02T08:10:50Z</time>
      </trkpt>
      <trkpt lat="45.61184" lon="0.46721">
        <ele>104.27</ele>
        <time>2019-11-02T08:11:20Z</time>
      </trkpt>
      <trkpt lat="45.61238" lon="0.46554">
        <ele>105.165</ele>
        <time>2019-11-02T08:11:50Z</time>
      </trkpt>
      <trkpt lat="45.61284" lon="0.46387">
        <ele>102.452</ele>
        <time>2019-11-02T08:12:20Z</time>
      </trkpt>
      <trkpt lat="45.61309" lon="0.46203">
        <ele>102.693</ele>
        <time>2019-11-02T08:12:50Z</time>
      </trkpt>
      <trkpt lat="45.61327" lon="0.4602">
        <ele>101.541</ele>
        <time>2019-11-02T08:13:20.001Z</time>
      </trkpt>
      <trkpt lat="45.61385" lon="0.45858">
        <ele>103.047</ele>
        <time>2019-11-02T08:13:50Z</time>
      </trkpt>
      <trkpt lat="45.61448" lon="0.45683">
        <ele>103.091</ele>
        <time>2019-11-02T08:14:20Z</time>
      </trkpt>
      <trkpt lat="45.61512" lon="0.45522">
        <ele>103.125</ele>
        <time>2019-11-02T08:14:50Z</time>
      </trkpt>
      <trkpt lat="45.61583" lon="0.45386">
        <ele>103.038</ele>
        <time>2019-11-02T08:15:20Z</time>
      </trkpt>
      <trkpt lat="45.61629" lon="0.45224">
        <ele>101.685</ele>
        <time>2019-11-02T08:15:50Z</time>
      </trkpt>
      <trkpt lat="45.6165" lon="0.45046">
        <ele>100.5</ele>
        <time>2019-11-02T08:16:20Z</time>
      </trkpt>
      <trkpt lat="45.61677" lon="0.44874">
        <ele>101.716</ele>
        <time>2019-11-02T08:16:50Z</time>
      </trkpt>
      <trkpt lat="45.617" lon="0.44691">
        <ele>104.935</ele>
        <time>2019-11-02T08:17:23Z</time>
      </trkpt>
      <trkpt lat="45.61699" lon="0.44521">
        <ele>105.463</ele>
        <time>2019-11-02T08:17:53Z</time>
      </trkpt>
      <trkpt lat="45.61726" lon="0.44377">
        <ele>106.424</ele>
        <time>2019-11-02T08:18:23Z</time>
      </trkpt>
      <trkpt lat="45.61787" lon="0.44467">
        <ele>115.504</ele>
        <time>2019-11-02T08:18:53Z</time>
      </trkpt>
      <trkpt lat="45.61806" lon="0.44341">
        <ele>123.385</ele>
        <time>2019-11-02T08:19:26Z</time>
      </trkpt>
      <trkpt lat="45.61833" lon="0.44154">
        <ele>125.431</ele>
        <time>2019-11-02T08:19:56Z</time>
      </trkpt>
      <trkpt lat="45.61861" lon="0.43989">
        <ele>116.005</ele>
        <time>2019-11-02T08:20:26Z</time>
      </trkpt>
      <trkpt lat="45.6188" lon="0.43841">
        <ele>110.847</ele>
        <time>2019-11-02T08:20:56Z</time>
      </trkpt>
      <trkpt lat="45.61906" lon="0.43673">
        <ele>112.3</ele>
        <time>2019-11-02T08:21:26Z</time>
      </trkpt>
      <trkpt lat="45.61913" lon="0.43512">
        <ele>110.327</ele>
        <time>2019-11-02T08:21:56Z</time>
      </trkpt>
      <trkpt lat="45.61927" lon="0.43349">
        <ele>104.755</ele>
        <time>2019-11-02T08:22:26Z</time>
      </trkpt>
      <trkpt lat="45.6194" lon="0.43159">
        <ele>112.252</ele>
        <time>2019-11-02T08:22:56Z</time>
      </trkpt>
      <trkpt lat="45.61939" lon="0.42962">
        <ele>110.324</ele>
        <time>2019-11-02T08:23:26Z</time>
      </trkpt>
      <trkpt lat="45.61924" lon="0.4278">
        <ele>109.362</ele>
        <time>2019-11-02T08:23:59Z</time>
      </trkpt>
      <trkpt lat="45.61932" lon="0.426">
        <ele>110.7</ele>
        <time>2019-11-02T08:24:29Z</time>
      </trkpt>
      <trkpt lat="45.61973" lon="0.4242">
        <ele>107.181</ele>
        <time>2019-11-02T08:24:59Z</time>
      </trkpt>
      <trkpt lat="45.62015" lon="0.42243">
        <ele>105.461</ele>
        <time>2019-11-02T08:25:29Z</time>
      </trkpt>
      <trkpt lat="45.62061" lon="0.42056">
        <ele>105.8</ele>
        <time>2019-11-02T08:25:59Z</time>
      </trkpt>
      <trkpt lat="45.62109" lon="0.41867">
        <ele>105.309</ele>
        <time>2019-11-02T08:26:29Z</time>
      </trkpt>
      <trkpt lat="45.62156" lon="0.41684">
        <ele>103.715</ele>
        <time>2019-11-02T08:26:59Z</time>
      </trkpt>
      <trkpt lat="45.62171" lon="0.41476">
        <ele>104.086</ele>
        <time>2019-11-02T08:27:29Z</time>
      </trkpt>
      <trkpt lat="45.6213" lon="0.41231">
        <ele>101.001</ele>
        <time>2019-11-02T08:27:59Z</time>
      </trkpt>
      <trkpt lat="45.62072" lon="0.41041">
        <ele>102.231</ele>
        <time>2019-11-02T08:28:29Z</time>
      </trkpt>
      <trkpt lat="45.62039" lon="0.40898">
        <ele>102.625</ele>
        <time>2019-11-02T08:29:02Z</time>
      </trkpt>
      <trkpt lat="45.6203" lon="0.40846">
        <ele>104.15</ele>
        <time>2019-11-02T08:32:23Z</time>
      </trkpt>
      <trkpt lat="45.6203" lon="0.40722">
        <ele>105.851</ele>
        <time>2019-11-02T08:32:56Z</time>
      </trkpt>
      <trkpt lat="45.62071" lon="0.40473">
        <ele>103.624</ele>
        <time>2019-11-02T08:33:29Z</time>
      </trkpt>
      <trkpt lat="45.6213" lon="0.40272">
        <ele>103.133</ele>
        <time>2019-11-02T08:33:59Z</time>
      </trkpt>
      <trkpt lat="45.62165" lon="0.40077">
        <ele>103.041</ele>
        <time>2019-11-02T08:34:29Z</time>
      </trkpt>
      <trkpt lat="45.62186" lon="0.3986">
        <ele>99.795</ele>
        <time>2019-11-02T08:34:59Z</time>
      </trkpt>
      <trkpt lat="45.622" lon="0.39648">
        <ele>100.798</ele>
        <time>2019-11-02T08:35:29Z</time>
      </trkpt>
      <trkpt lat="45.62209" lon="0.39563">
        <ele>101.831</ele>
        <time>2019-11-02T08:36:29Z</time>
      </trkpt>
      <trkpt lat="45.62228" lon="0.39398">
        <ele>101.64</ele>
        <time>2019-11-02T08:36:59Z</time>
      </trkpt>
      <trkpt lat="45.62258" lon="0.392">
        <ele>98.897</ele>
        <time>2019-11-02T08:37:29Z</time>
      </trkpt>
      <trkpt lat="45.62308" lon="0.38983">
        <ele>99.658</ele>
        <time>2019-11-02T08:37:59Z</time>
      </trkpt>
      <trkpt lat="45.62379" lon="0.38777">
        <ele>100.295</ele>
        <time>2019-11-02T08:38:29Z</time>
      </trkpt>
      <trkpt lat="45.62439" lon="0.38634">
        <ele>98.934</ele>
        <time>2019-11-02T08:38:59Z</time>
      </trkpt>
      <trkpt lat="45.62515" lon="0.38492">
        <ele>106.201</ele>
        <time>2019-11-02T08:39:29Z</time>
      </trkpt>
      <trkpt lat="45.62617" lon="0.38335">
        <ele>109.087</ele>
        <time>2019-11-02T08:39:59Z</time>
      </trkpt>
      <trkpt lat="45.62701" lon="0.3818">
        <ele>108.282</ele>
        <time>2019-11-02T08:40:29Z</time>
      </trkpt>
      <trkpt lat="45.628" lon="0.38018">
        <ele>102.561</ele>
        <time>2019-11-02T08:41:02Z</time>
      </trkpt>
      <trkpt lat="45.6288" lon="0.37882">
        <ele>105.381</ele>
        <time>2019-11-02T08:41:32Z</time>
      </trkpt>
      <trkpt lat="45.62968" lon="0.3773">
        <ele>102.826</ele>
        <time>2019-11-02T08:42:02Z</time>
      </trkpt>
      <trkpt lat="45.62905" lon="0.37705">
        <ele>96.782</ele>
        <time>2019-11-02T08:42:32Z</time>
      </trkpt>
      <trkpt lat="45.62846" lon="0.37682">
        <ele>103.279</ele>
        <time>2019-11-02T08:43:05Z</time>
      </trkpt>
      <trkpt lat="45.6278" lon="0.37686">
        <ele>110.713</ele>
        <time>2019-11-02T08:43:47Z</time>
      </trkpt>
      <trkpt lat="45.62729" lon="0.37738">
        <ele>116.876</ele>
        <time>2019-11-02T08:44:17Z</time>
      </trkpt>
      <trkpt lat="45.62677" lon="0.37748">
        <ele>119.516</ele>
        <time>2019-11-02T08:46:29Z</time>
      </trkpt>
      <trkpt lat="45.6266" lon="0.37713">
        <ele>121.799</ele>
        <time>2019-11-02T08:48:23Z</time>
      </trkpt>
      <trkpt lat="45.6263" lon="0.37437">
        <ele>107.566</ele>
        <time>2019-11-02T08:48:53Z</time>
      </trkpt>
      <trkpt lat="45.62617" lon="0.37293">
        <ele>108.386</ele>
        <time>2019-11-02T08:49:23Z</time>
      </trkpt>
      <trkpt lat="45.62606" lon="0.37201">
        <ele>113.853</ele>
        <time>2019-11-02T08:49:53Z</time>
      </trkpt>
      <trkpt lat="45.62597" lon="0.37108">
        <ele>118.877</ele>
        <time>2019-11-02T08:50:23Z</time>
      </trkpt>
      <trkpt lat="45.62584" lon="0.37009">
        <ele>124.261</ele>
        <time>2019-11-02T08:50:56Z</time>
      </trkpt>
      <trkpt lat="45.62577" lon="0.36908">
        <ele>127.154</ele>
        <time>2019-11-02T08:51:26Z</time>
      </trkpt>
      <trkpt lat="45.6258" lon="0.36767">
        <ele>125.887</ele>
        <time>2019-11-02T08:51:56Z</time>
      </trkpt>
      <trkpt lat="45.6259" lon="0.36576">
        <ele>119.225</ele>
        <time>2019-11-02T08:52:26Z</time>
      </trkpt>
      <trkpt lat="45.62604" lon="0.36367">
        <ele>120.696</ele>
        <time>2019-11-02T08:52:56Z</time>
      </trkpt>
      <trkpt lat="45.62613" lon="0.36173">
        <ele>121.689</ele>
        <time>2019-11-02T08:53:26Z</time>
      </trkpt>
      <trkpt lat="45.62628" lon="0.35894">
        <ele>114.947</ele>
        <time>2019-11-02T08:53:56Z</time>
      </trkpt>
      <trkpt lat="45.62641" lon="0.35715">
        <ele>119.04</ele>
        <time>2019-11-02T08:54:26Z</time>
      </trkpt>
      <trkpt lat="45.62648" lon="0.35447">
        <ele>113.509</ele>
        <time>2019-11-02T08:54:56Z</time>
      </trkpt>
      <trkpt lat="45.62653" lon="0.35291">
        <ele>116.765</ele>
        <time>2019-11-02T08:55:44Z</time>
      </trkpt>
      <trkpt lat="45.62654" lon="0.35183">
        <ele>124.065</ele>
        <time>2019-11-02T08:56:41Z</time>
      </trkpt>
      <trkpt lat="45.62658" lon="0.35129">
        <ele>124.006</ele>
        <time>2019-11-02T09:05:08Z</time>
      </trkpt>
      <trkpt lat="45.6266" lon="0.35024">
        <ele>125.964</ele>
        <time>2019-11-02T09:05:38Z</time>
      </trkpt>
      <trkpt lat="45.62664" lon="0.34893">
        <ele>124.783</ele>
        <time>2019-11-02T09:06:11Z</time>
      </trkpt>
      <trkpt lat="45.62667" lon="0.34767">
        <ele>128.027</ele>
        <time>2019-11-02T09:06:41Z</time>
      </trkpt>
      <trkpt lat="45.62673" lon="0.34596">
        <ele>131.404</ele>
        <time>2019-11-02T09:07:11Z</time>
      </trkpt>
      <trkpt lat="45.62625" lon="0.34374">
        <ele>125.524</ele>
        <time>2019-11-02T09:07:41Z</time>
      </trkpt>
      <trkpt lat="45.62576" lon="0.34227">
        <ele>127.14</ele>
        <time>2019-11-02T09:08:11Z</time>
      </trkpt>
      <trkpt lat="45.62529" lon="0.34086">
        <ele>129.498</ele>
        <time>2019-11-02T09:08:41Z</time>
      </trkpt>
      <trkpt lat="45.62475" lon="0.33929">
        <ele>128.897</ele>
        <time>2019-11-02T09:09:11Z</time>
      </trkpt>
      <trkpt lat="45.62421" lon="0.33768">
        <ele>130.34</ele>
        <time>2019-11-02T09:09:41Z</time>
      </trkpt>
      <trkpt lat="45.62369" lon="0.33604">
        <ele>136.38</ele>
        <time>2019-11-02T09:10:11Z</time>
      </trkpt>
      <trkpt lat="45.62308" lon="0.33424">
        <ele>129.891</ele>
        <time>2019-11-02T09:10:41Z</time>
      </trkpt>
      <trkpt lat="45.62263" lon="0.33294">
        <ele>132.016</ele>
        <time>2019-11-02T09:11:11Z</time>
      </trkpt>
      <trkpt lat="45.62227" lon="0.33186">
        <ele>133.883</ele>
        <time>2019-11-02T09:11:41Z</time>
      </trkpt>
      <trkpt lat="45.62193" lon="0.33083">
        <ele>137.167</ele>
        <time>2019-11-02T09:12:11Z</time>
      </trkpt>
      <trkpt lat="45.62164" lon="0.32998">
        <ele>141.875</ele>
        <time>2019-11-02T09:12:41Z</time>
      </trkpt>
      <trkpt lat="45.6213" lon="0.32894">
        <ele>145.005</ele>
        <time>2019-11-02T09:13:14Z</time>
      </trkpt>
      <trkpt lat="45.62098" lon="0.328">
        <ele>144.651</ele>
        <time>2019-11-02T09:13:44Z</time>
      </trkpt>
      <trkpt lat="45.6206" lon="0.32687">
        <ele>149.737</ele>
        <time>2019-11-02T09:14:14Z</time>
      </trkpt>
      <trkpt lat="45.62013" lon="0.32539">
        <ele>150.033</ele>
        <time>2019-11-02T09:14:44Z</time>
      </trkpt>
      <trkpt lat="45.61941" lon="0.32321">
        <ele>148.275</ele>
        <time>2019-11-02T09:15:14Z</time>
      </trkpt>
      <trkpt lat="45.61882" lon="0.32131">
        <ele>147.307</ele>
        <time>2019-11-02T09:15:44Z</time>
      </trkpt>
      <trkpt lat="45.61902" lon="0.31892">
        <ele>144.809</ele>
        <time>2019-11-02T09:16:14Z</time>
      </trkpt>
      <trkpt lat="45.61892" lon="0.31608">
        <ele>135.795</ele>
        <time>2019-11-02T09:16:44Z</time>
      </trkpt>
      <trkpt lat="45.61893" lon="0.31401">
        <ele>135.772</ele>
        <time>2019-11-02T09:17:14Z</time>
      </trkpt>
      <trkpt lat="45.61887" lon="0.31281">
        <ele>142.654</ele>
        <time>2019-11-02T09:17:44Z</time>
      </trkpt>
      <trkpt lat="45.61852" lon="0.31034">
        <ele>141.387</ele>
        <time>2019-11-02T09:18:14Z</time>
      </trkpt>
      <trkpt lat="45.61775" lon="0.30721">
        <ele>129.788</ele>
        <time>2019-11-02T09:18:44Z</time>
      </trkpt>
      <trkpt lat="45.61724" lon="0.30518">
        <ele>129.392</ele>
        <time>2019-11-02T09:19:14Z</time>
      </trkpt>
      <trkpt lat="45.61685" lon="0.30303">
        <ele>130.045</ele>
        <time>2019-11-02T09:19:47Z</time>
      </trkpt>
      <trkpt lat="45.61607" lon="0.30118">
        <ele>130.664</ele>
        <time>2019-11-02T09:20:17Z</time>
      </trkpt>
      <trkpt lat="45.61381" lon="0.29946">
        <ele>119.437</ele>
        <time>2019-11-02T09:20:47Z</time>
      </trkpt>
      <trkpt lat="45.61388" lon="0.29532">
        <ele>98.094</ele>
        <time>2019-11-02T09:21:17Z</time>
      </trkpt>
      <trkpt lat="45.61528" lon="0.2922">
        <ele>80.92</ele>
        <time>2019-11-02T09:21:47Z</time>
      </trkpt>
      <trkpt lat="45.61524" lon="0.29105">
        <ele>81.958</ele>
        <time>2019-11-02T09:22:20Z</time>
      </trkpt>
      <trkpt lat="45.61538" lon="0.29077">
        <ele>87.379</ele>
        <time>2019-11-02T09:23:59Z</time>
      </trkpt>
      <trkpt lat="45.6154" lon="0.28968">
        <ele>95.187</ele>
        <time>2019-11-02T09:24:29Z</time>
      </trkpt>
      <trkpt lat="45.61548" lon="0.2885">
        <ele>95.352</ele>
        <time>2019-11-02T09:24:59Z</time>
      </trkpt>
      <trkpt lat="45.61554" lon="0.28751">
        <ele>97.544</ele>
        <time>2019-11-02T09:25:29Z</time>
      </trkpt>
      <trkpt lat="45.61558" lon="0.28651">
        <ele>99.484</ele>
        <time>2019-11-02T09:25:59Z</time>
      </trkpt>
      <trkpt lat="45.61561" lon="0.28556">
        <ele>101.903</ele>
        <time>2019-11-02T09:26:29Z</time>
      </trkpt>
      <trkpt lat="45.61554" lon="0.28457">
        <ele>106.192</ele>
        <time>2019-11-02T09:26:59Z</time>
      </trkpt>
      <trkpt lat="45.61546" lon="0.28327">
        <ele>107.885</ele>
        <time>2019-11-02T09:27:32Z</time>
      </trkpt>
      <trkpt lat="45.61552" lon="0.28201">
        <ele>111.752</ele>
        <time>2019-11-02T09:28:02Z</time>
      </trkpt>
      <trkpt lat="45.61584" lon="0.27985">
        <ele>108.63</ele>
        <time>2019-11-02T09:28:32Z</time>
      </trkpt>
      <trkpt lat="45.61621" lon="0.2783">
        <ele>109.478</ele>
        <time>2019-11-02T09:29:02Z</time>
      </trkpt>
      <trkpt lat="45.61666" lon="0.27666">
        <ele>111.232</ele>
        <time>2019-11-02T09:29:32Z</time>
      </trkpt>
      <trkpt lat="45.61797" lon="0.2732">
        <ele>99.379</ele>
        <time>2019-11-02T09:30:02Z</time>
      </trkpt>
      <trkpt lat="45.61866" lon="0.27074">
        <ele>96.125</ele>
        <time>2019-11-02T09:30:32Z</time>
      </trkpt>
      <trkpt lat="45.619" lon="0.26952">
        <ele>100.388</ele>
        <time>2019-11-02T09:31:02Z</time>
      </trkpt>
      <trkpt lat="45.61937" lon="0.26817">
        <ele>101.837</ele>
        <time>2019-11-02T09:31:32Z</time>
      </trkpt>
      <trkpt lat="45.61977" lon="0.26667">
        <ele>100.718</ele>
        <time>2019-11-02T09:32:02Z</time>
      </trkpt>
      <trkpt lat="45.62005" lon="0.26466">
        <ele>99.115</ele>
        <time>2019-11-02T09:32:32Z</time>
      </trkpt>
      <trkpt lat="45.62026" lon="0.26313">
        <ele>102.849</ele>
        <time>2019-11-02T09:33:02Z</time>
      </trkpt>
      <trkpt lat="45.62038" lon="0.26217">
        <ele>107.295</ele>
        <time>2019-11-02T09:33:32Z</time>
      </trkpt>
      <trkpt lat="45.62048" lon="0.26128">
        <ele>109.248</ele>
        <time>2019-11-02T09:34:02Z</time>
      </trkpt>
      <trkpt lat="45.62061" lon="0.26028">
        <ele>114.949</ele>
        <time>2019-11-02T09:34:35Z</time>
      </trkpt>
      <trkpt lat="45.62075" lon="0.25938">
        <ele>119.802</ele>
        <time>2019-11-02T09:35:05Z</time>
      </trkpt>
      <trkpt lat="45.62098" lon="0.25859">
        <ele>123.709</ele>
        <time>2019-11-02T09:35:35Z</time>
      </trkpt>
      <trkpt lat="45.62118" lon="0.25775">
        <ele>131.728</ele>
        <time>2019-11-02T09:36:05Z</time>
      </trkpt>
      <trkpt lat="45.62124" lon="0.2569">
        <ele>136.684</ele>
        <time>2019-11-02T09:36:35Z</time>
      </trkpt>
      <trkpt lat="45.62115" lon="0.25604">
        <ele>140.264</ele>
        <time>2019-11-02T09:37:05Z</time>
      </trkpt>
      <trkpt lat="45.621" lon="0.25522">
        <ele>140.843</ele>
        <time>2019-11-02T09:37:35Z</time>
      </trkpt>
      <trkpt lat="45.62084" lon="0.2544">
        <ele>146.82</ele>
        <time>2019-11-02T09:38:05Z</time>
      </trkpt>
      <trkpt lat="45.62074" lon="0.25352">
        <ele>145.672</ele>
        <time>2019-11-02T09:38:35Z</time>
      </trkpt>
      <trkpt lat="45.62167" lon="0.25231">
        <ele>149.422</ele>
        <time>2019-11-02T09:39:05Z</time>
      </trkpt>
      <trkpt lat="45.62271" lon="0.25105">
        <ele>148.661</ele>
        <time>2019-11-02T09:39:35Z</time>
      </trkpt>
      <trkpt lat="45.6238" lon="0.24888">
        <ele>147.44</ele>
        <time>2019-11-02T09:40:08Z</time>
      </trkpt>
      <trkpt lat="45.62425" lon="0.2474">
        <ele>151.396</ele>
        <time>2019-11-02T09:40:38Z</time>
      </trkpt>
      <trkpt lat="45.62467" lon="0.24631">
        <ele>147.394</ele>
        <time>2019-11-02T09:41:11Z</time>
      </trkpt>
      <trkpt lat="45.6249" lon="0.24514">
        <ele>153.066</ele>
        <time>2019-11-02T09:41:41Z</time>
      </trkpt>
      <trkpt lat="45.62521" lon="0.24398">
        <ele>158.483</ele>
        <time>2019-11-02T09:42:11Z</time>
      </trkpt>
      <trkpt lat="45.62562" lon="0.24237">
        <ele>163.814</ele>
        <time>2019-11-02T09:42:41Z</time>
      </trkpt>
      <trkpt lat="45.62629" lon="0.23994">
        <ele>151.809</ele>
        <time>2019-11-02T09:43:11Z</time>
      </trkpt>
      <trkpt lat="45.62662" lon="0.23876">
        <ele>153.731</ele>
        <time>2019-11-02T09:43:41Z</time>
      </trkpt>
      <trkpt lat="45.6269" lon="0.23773">
        <ele>165.688</ele>
        <time>2019-11-02T09:44:11Z</time>
      </trkpt>
      <trkpt lat="45.62719" lon="0.2367">
        <ele>170.587</ele>
        <time>2019-11-02T09:44:41Z</time>
      </trkpt>
      <trkpt lat="45.62748" lon="0.23561">
        <ele>174.255</ele>
        <time>2019-11-02T09:45:11Z</time>
      </trkpt>
      <trkpt lat="45.62776" lon="0.23449">
        <ele>176.843</ele>
        <time>2019-11-02T09:45:41Z</time>
      </trkpt>
      <trkpt lat="45.62808" lon="0.23339">
        <ele>176.944</ele>
        <time>2019-11-02T09:46:11Z</time>
      </trkpt>
      <trkpt lat="45.62843" lon="0.23211">
        <ele>177.759</ele>
        <time>2019-11-02T09:46:41Z</time>
      </trkpt>
      <trkpt lat="45.62884" lon="0.23061">
        <ele>176.985</ele>
        <time>2019-11-02T09:47:11Z</time>
      </trkpt>
      <trkpt lat="45.62929" lon="0.22823">
        <ele>168.969</ele>
        <time>2019-11-02T09:47:44Z</time>
      </trkpt>
      <trkpt lat="45.62972" lon="0.22441">
        <ele>158.665</ele>
        <time>2019-11-02T09:48:17Z</time>
      </trkpt>
      <trkpt lat="45.63064" lon="0.22049">
        <ele>150.319</ele>
        <time>2019-11-02T09:48:47Z</time>
      </trkpt>
      <trkpt lat="45.6315" lon="0.21848">
        <ele>152.179</ele>
        <time>2019-11-02T09:49:17Z</time>
      </trkpt>
      <trkpt lat="45.63266" lon="0.21583">
        <ele>143.251</ele>
        <time>2019-11-02T09:49:47Z</time>
      </trkpt>
      <trkpt lat="45.6338" lon="0.21317">
        <ele>135.305</ele>
        <time>2019-11-02T09:50:17Z</time>
      </trkpt>
      <trkpt lat="45.63376" lon="0.21181">
        <ele>131.714</ele>
        <time>2019-11-02T09:50:47Z</time>
      </trkpt>
      <trkpt lat="45.63204" lon="0.20959">
        <ele>125.631</ele>
        <time>2019-11-02T09:51:17Z</time>
      </trkpt>
      <trkpt lat="45.6305" lon="0.20701">
        <ele>118.646</ele>
        <time>2019-11-02T09:51:47Z</time>
      </trkpt>
      <trkpt lat="45.62962" lon="0.20494">
        <ele>117.561</ele>
        <time>2019-11-02T09:52:17Z</time>
      </trkpt>
      <trkpt lat="45.62892" lon="0.20324">
        <ele>119.232</ele>
        <time>2019-11-02T09:52:47Z</time>
      </trkpt>
      <trkpt lat="45.62819" lon="0.20147">
        <ele>117.3</ele>
        <time>2019-11-02T09:53:17Z</time>
      </trkpt>
      <trkpt lat="45.62746" lon="0.19967">
        <ele>117.391</ele>
        <time>2019-11-02T09:53:47Z</time>
      </trkpt>
      <trkpt lat="45.62665" lon="0.19769">
        <ele>117.838</ele>
        <time>2019-11-02T09:54:17Z</time>
      </trkpt>
      <trkpt lat="45.6257" lon="0.19539">
        <ele>114.107</ele>
        <time>2019-11-02T09:54:50Z</time>
      </trkpt>
      <trkpt lat="45.62482" lon="0.19324">
        <ele>112.445</ele>
        <time>2019-11-02T09:55:20Z</time>
      </trkpt>
      <trkpt lat="45.62407" lon="0.19103">
        <ele>112.151</ele>
        <time>2019-11-02T09:55:50Z</time>
      </trkpt>
      <trkpt lat="45.62399" lon="0.18928">
        <ele>112.105</ele>
        <time>2019-11-02T09:56:20Z</time>
      </trkpt>
      <trkpt lat="45.62427" lon="0.18762">
        <ele>117.479</ele>
        <time>2019-11-02T09:56:50Z</time>
      </trkpt>
      <trkpt lat="45.62456" lon="0.18601">
        <ele>119.216</ele>
        <time>2019-11-02T09:57:20Z</time>
      </trkpt>
      <trkpt lat="45.62486" lon="0.1843">
        <ele>118.001</ele>
        <time>2019-11-02T09:57:50Z</time>
      </trkpt>
      <trkpt lat="45.62514" lon="0.18264">
        <ele>121.221</ele>
        <time>2019-11-02T09:58:20Z</time>
      </trkpt>
      <trkpt lat="45.6254" lon="0.1812">
        <ele>122.729</ele>
        <time>2019-11-02T09:58:50Z</time>
      </trkpt>
      <trkpt lat="45.62578" lon="0.18013">
        <ele>123.737</ele>
        <time>2019-11-02T09:59:23Z</time>
      </trkpt>
      <trkpt lat="45.62697" lon="0.17958">
        <ele>118.583</ele>
        <time>2019-11-02T10:01:56Z</time>
      </trkpt>
      <trkpt lat="45.62941" lon="0.1788">
        <ele>106.844</ele>
        <time>2019-11-02T10:02:26Z</time>
      </trkpt>
      <trkpt lat="45.63039" lon="0.17568">
        <ele>96.882</ele>
        <time>2019-11-02T10:02:56Z</time>
      </trkpt>
      <trkpt lat="45.6308" lon="0.1747">
        <ele>102.734</ele>
        <time>2019-11-02T10:03:29Z</time>
      </trkpt>
      <trkpt lat="45.63117" lon="0.17373">
        <ele>106.16</ele>
        <time>2019-11-02T10:03:59Z</time>
      </trkpt>
      <trkpt lat="45.63154" lon="0.17256">
        <ele>109.05</ele>
        <time>2019-11-02T10:04:29Z</time>
      </trkpt>
      <trkpt lat="45.63199" lon="0.17108">
        <ele>103.423</ele>
        <time>2019-11-02T10:04:59Z</time>
      </trkpt>
      <trkpt lat="45.63176" lon="0.16823">
        <ele>95.243</ele>
        <time>2019-11-02T10:05:29Z</time>
      </trkpt>
      <trkpt lat="45.63259" lon="0.16709">
        <ele>96.361</ele>
        <time>2019-11-02T10:05:59Z</time>
      </trkpt>
      <trkpt lat="45.63324" lon="0.16619">
        <ele>98.158</ele>
        <time>2019-11-02T10:06:29Z</time>
      </trkpt>
      <trkpt lat="45.63403" lon="0.16476">
        <ele>105.779</ele>
        <time>2019-11-02T10:06:59Z</time>
      </trkpt>
      <trkpt lat="45.63474" lon="0.16315">
        <ele>103.428</ele>
        <time>2019-11-02T10:07:29Z</time>
      </trkpt>
      <trkpt lat="45.63532" lon="0.16096">
        <ele>100.555</ele>
        <time>2019-11-02T10:07:59Z</time>
      </trkpt>
      <trkpt lat="45.63563" lon="0.15855">
        <ele>96.367</ele>
        <time>2019-11-02T10:08:29Z</time>
      </trkpt>
      <trkpt lat="45.63582" lon="0.15655">
        <ele>93.635</ele>
        <time>2019-11-02T10:08:59Z</time>
      </trkpt>
      <trkpt lat="45.63603" lon="0.15458">
        <ele>92.479</ele>
        <time>2019-11-02T10:09:29Z</time>
      </trkpt>
      <trkpt lat="45.63673" lon="0.15434">
        <ele>94.258</ele>
        <time>2019-11-02T10:10:02Z</time>
      </trkpt>
      <trkpt lat="45.63854" lon="0.15499">
        <ele>79.413</ele>
        <time>2019-11-02T10:10:32Z</time>
      </trkpt>
      <trkpt lat="45.63956" lon="0.15709">
        <ele>69.452</ele>
        <time>2019-11-02T10:11:02Z</time>
      </trkpt>
      <trkpt lat="45.64143" lon="0.15725">
        <ele>60.934</ele>
        <time>2019-11-02T10:11:32Z</time>
      </trkpt>
      <trkpt lat="45.6426" lon="0.15706">
        <ele>62.061</ele>
        <time>2019-11-02T10:12:02Z</time>
      </trkpt>
      <trkpt lat="45.64266" lon="0.1571">
        <ele>61.665</ele>
        <time>2019-11-02T10:14:38Z</time>
      </trkpt>
      <trkpt lat="45.64238" lon="0.15647">
        <ele>60.175</ele>
        <time>2019-11-02T10:15:32Z</time>
      </trkpt>
      <trkpt lat="45.64178" lon="0.15586">
        <ele>52.765</ele>
        <time>2019-11-02T10:16:02Z</time>
      </trkpt>
      <trkpt lat="45.64208" lon="0.1551">
        <ele>60.722</ele>
        <time>2019-11-02T10:16:38Z</time>
      </trkpt>
      <trkpt lat="45.64276" lon="0.15346">
        <ele>65.284</ele>
        <time>2019-11-02T10:17:08Z</time>
      </trkpt>
      <trkpt lat="45.64327" lon="0.15141">
        <ele>56.807</ele>
        <time>2019-11-02T10:17:38Z</time>
      </trkpt>
      <trkpt lat="45.64362" lon="0.15002">
        <ele>53.918</ele>
        <time>2019-11-02T10:18:08Z</time>
      </trkpt>
      <trkpt lat="45.64368" lon="0.14983">
        <ele>53.437</ele>
        <time>2019-11-02T10:19:23Z</time>
      </trkpt>
      <trkpt lat="45.64404" lon="0.14838">
        <ele>49.74</ele>
        <time>2019-11-02T10:19:53Z</time>
      </trkpt>
      <trkpt lat="45.64407" lon="0.14641">
        <ele>48.941</ele>
        <time>2019-11-02T10:20:26Z</time>
      </trkpt>
      <trkpt lat="45.64404" lon="0.1448">
        <ele>50.026</ele>
        <time>2019-11-02T10:20:56Z</time>
      </trkpt>
      <trkpt lat="45.64442" lon="0.14334">
        <ele>53.972</ele>
        <time>2019-11-02T10:21:26Z</time>
      </trkpt>
      <trkpt lat="45.64439" lon="0.14217">
        <ele>53.239</ele>
        <time>2019-11-02T10:21:56Z</time>
      </trkpt>
      <trkpt lat="45.644" lon="0.14138">
        <ele>54.479</ele>
        <time>2019-11-02T10:22:26Z</time>
      </trkpt>
      <trkpt lat="45.64317" lon="0.14091">
        <ele>57.666</ele>
        <time>2019-11-02T10:22:56Z</time>
      </trkpt>
      <trkpt lat="45.64309" lon="0.1398">
        <ele>56.371</ele>
        <time>2019-11-02T10:23:26Z</time>
      </trkpt>
      <trkpt lat="45.64317" lon="0.13796">
        <ele>55.659</ele>
        <time>2019-11-02T10:23:56Z</time>
      </trkpt>
      <trkpt lat="45.64316" lon="0.13631">
        <ele>52.568</ele>
        <time>2019-11-02T10:24:26Z</time>
      </trkpt>
      <trkpt lat="45.64285" lon="0.13553">
        <ele>52.404</ele>
        <time>2019-11-02T10:25:02Z</time>
      </trkpt>
      <trkpt lat="45.64165" lon="0.13405">
        <ele>50.189</ele>
        <time>2019-11-02T10:25:32Z</time>
      </trkpt>
      <trkpt lat="45.64051" lon="0.13261">
        <ele>50.198</ele>
        <time>2019-11-02T10:26:02Z</time>
      </trkpt>
      <trkpt lat="45.6394" lon="0.13124">
        <ele>50.324</ele>
        <time>2019-11-02T10:26:32Z</time>
      </trkpt>
      <trkpt lat="45.6382" lon="0.12967">
        <ele>46.83</ele>
        <time>2019-11-02T10:27:05Z</time>
      </trkpt>
      <trkpt lat="45.63705" lon="0.12831">
        <ele>44.774</ele>
        <time>2019-11-02T10:27:35Z</time>
      </trkpt>
      <trkpt lat="45.63615" lon="0.12721">
        <ele>36.329</ele>
        <time>2019-11-02T10:28:05Z</time>
      </trkpt>
      <trkpt lat="45.63566" lon="0.12567">
        <ele>36.083</ele>
        <time>2019-11-02T10:28:35Z</time>
      </trkpt>
      <trkpt lat="45.63479" lon="0.12499">
        <ele>35.684</ele>
        <time>2019-11-02T10:29:05Z</time>
      </trkpt>
      <trkpt lat="45.63383" lon="0.12436">
        <ele>40.898</ele>
        <time>2019-11-02T10:29:35Z</time>
      </trkpt>
      <trkpt lat="45.63314" lon="0.12347">
        <ele>43.686</ele>
        <time>2019-11-02T10:30:05Z</time>
      </trkpt>
      <trkpt lat="45.6325" lon="0.1227">
        <ele>49.297</ele>
        <time>2019-11-02T10:30:35Z</time>
      </trkpt>
      <trkpt lat="45.63197" lon="0.12201">
        <ele>50.102</ele>
        <time>2019-11-02T10:31:05Z</time>
      </trkpt>
      <trkpt lat="45.63143" lon="0.12135">
        <ele>53.562</ele>
        <time>2019-11-02T10:31:35Z</time>
      </trkpt>
      <trkpt lat="45.63091" lon="0.12068">
        <ele>56.766</ele>
        <time>2019-11-02T10:32:05Z</time>
      </trkpt>
      <trkpt lat="45.63023" lon="0.11985">
        <ele>58.488</ele>
        <time>2019-11-02T10:32:35Z</time>
      </trkpt>
      <trkpt lat="45.62872" lon="0.11793">
        <ele>47.746</ele>
        <time>2019-11-02T10:33:05Z</time>
      </trkpt>
      <trkpt lat="45.62691" lon="0.11573">
        <ele>39.052</ele>
        <time>2019-11-02T10:33:38Z</time>
      </trkpt>
      <trkpt lat="45.62563" lon="0.11416">
        <ele>35.658</ele>
        <time>2019-11-02T10:34:08Z</time>
      </trkpt>
      <trkpt lat="45.62483" lon="0.11315">
        <ele>36.849</ele>
        <time>2019-11-02T10:34:38Z</time>
      </trkpt>
      <trkpt lat="45.62426" lon="0.1124">
        <ele>43.963</ele>
        <time>2019-11-02T10:35:08Z</time>
      </trkpt>
      <trkpt lat="45.62381" lon="0.11151">
        <ele>50.837</ele>
        <time>2019-11-02T10:35:38Z</time>
      </trkpt>
      <trkpt lat="45.62411" lon="0.11034">
        <ele>49.878</ele>
        <time>2019-11-02T10:36:08Z</time>
      </trkpt>
      <trkpt lat="45.62457" lon="0.11083">
        <ele>54.979</ele>
        <time>2019-11-02T10:36:38Z</time>
      </trkpt>
      <trkpt lat="45.62481" lon="0.11169">
        <ele>53.462</ele>
        <time>2019-11-02T10:37:08Z</time>
      </trkpt>
      <trkpt lat="45.62484" lon="0.11172">
        <ele>45.493</ele>
        <time>2019-11-02T10:37:59Z</time>
      </trkpt>
      <trkpt lat="45.62468" lon="0.11191">
        <ele>42.94</ele>
        <time>2019-11-02T10:38:53Z</time>
      </trkpt>
      <trkpt lat="45.62463" lon="0.11184">
        <ele>50.298</ele>
        <time>2019-11-02T10:42:11Z</time>
      </trkpt>
      <trkpt lat="45.62474" lon="0.11184">
        <ele>44.912</ele>
        <time>2019-11-02T10:43:44Z</time>
      </trkpt>
      <trkpt lat="45.6248" lon="0.11182">
        <ele>42.427</ele>
        <time>2019-11-02T10:45:20Z</time>
      </trkpt>
      <trkpt lat="45.62491" lon="0.11205">
        <ele>40.685</ele>
        <time>2019-11-02T10:46:44Z</time>
      </trkpt>
      <trkpt lat="45.62515" lon="0.11228">
        <ele>50.515</ele>
        <time>2019-11-02T10:47:35Z</time>
      </trkpt>
      <trkpt lat="45.6251" lon="0.11235">
        <ele>53.573</ele>
        <time>2019-11-02T10:56:46Z</time>
      </trkpt>
      <trkpt lat="45.62485" lon="0.11241">
        <ele>66.926</ele>
        <time>2019-11-02T10:58:40Z</time>
      </trkpt>
      <trkpt lat="45.62483" lon="0.11193">
        <ele>36.991</ele>
        <time>2019-11-02T10:59:34Z</time>
      </trkpt>
      <trkpt lat="45.62482" lon="0.11193">
        <ele>33.304</ele>
        <time>2019-11-02T11:02:10Z</time>
      </trkpt>
      <trkpt lat="45.62475" lon="0.11168">
        <ele>36.993</ele>
        <time>2019-11-02T11:09:46Z</time>
      </trkpt>
      <trkpt lat="45.62495" lon="0.11189">
        <ele>15.17</ele>
        <time>2019-11-02T11:16:52Z</time>
      </trkpt>
      <trkpt lat="45.62472" lon="0.11173">
        <ele>27.649</ele>
        <time>2019-11-02T11:18:13Z</time>
      </trkpt>
      <trkpt lat="45.62476" lon="0.11187">
        <ele>14.18</ele>
        <time>2019-11-02T11:19:22Z</time>
      </trkpt>
      <trkpt lat="45.62479" lon="0.11179">
        <ele>17.554</ele>
        <time>2019-11-02T11:20:34Z</time>
      </trkpt>
      <trkpt lat="45.6248" lon="0.11174">
        <ele>22.438</ele>
        <time>2019-11-02T11:23:28Z</time>
      </trkpt>
      <trkpt lat="45.62479" lon="0.11188">
        <ele>28.718</ele>
        <time>2019-11-02T11:25:55Z</time>
      </trkpt>
      <trkpt lat="45.62479" lon="0.11175">
        <ele>26.863</ele>
        <time>2019-11-02T11:27:43Z</time>
      </trkpt>
      <trkpt lat="45.62465" lon="0.11199">
        <ele>30.397</ele>
        <time>2019-11-02T11:29:13Z</time>
      </trkpt>
      <trkpt lat="45.62483" lon="0.11184">
        <ele>0.201</ele>
        <time>2019-11-02T11:29:52Z</time>
      </trkpt>
      <trkpt lat="45.62469" lon="0.11178">
        <ele>25.671</ele>
        <time>2019-11-02T11:30:46Z</time>
      </trkpt>
      <trkpt lat="45.62503" lon="0.11196">
        <ele>34.466</ele>
        <time>2019-11-02T11:31:25Z</time>
      </trkpt>
      <trkpt lat="45.62474" lon="0.11196">
        <ele>45.25</ele>
        <time>2019-11-02T11:35:53Z</time>
      </trkpt>
      <trkpt lat="45.62479" lon="0.11205">
        <ele>39.06</ele>
        <time>2019-11-02T11:37:56Z</time>
      </trkpt>
      <trkpt lat="45.62484" lon="0.1119">
        <ele>44.41</ele>
        <time>2019-11-02T11:40:50Z</time>
      </trkpt>
      <trkpt lat="45.62481" lon="0.11191">
        <ele>44.79</ele>
        <time>2019-11-02T11:42:11Z</time>
      </trkpt>
      <trkpt lat="45.6251" lon="0.11144">
        <ele>41.972</ele>
        <time>2019-11-02T11:56:02Z</time>
      </trkpt>
      <trkpt lat="45.62478" lon="0.11059">
        <ele>46.188</ele>
        <time>2019-11-02T11:56:32Z</time>
      </trkpt>
      <trkpt lat="45.62554" lon="0.11073">
        <ele>46.809</ele>
        <time>2019-11-02T11:57:02Z</time>
      </trkpt>
      <trkpt lat="45.62634" lon="0.11165">
        <ele>43.491</ele>
        <time>2019-11-02T11:57:32Z</time>
      </trkpt>
      <trkpt lat="45.62702" lon="0.11195">
        <ele>40.102</ele>
        <time>2019-11-02T11:59:41Z</time>
      </trkpt>
      <trkpt lat="45.62751" lon="0.1124">
        <ele>39.797</ele>
        <time>2019-11-02T12:01:14Z</time>
      </trkpt>
      <trkpt lat="45.62796" lon="0.11287">
        <ele>40.145</ele>
        <time>2019-11-02T12:01:44Z</time>
      </trkpt>
      <trkpt lat="45.62851" lon="0.11352">
        <ele>40.201</ele>
        <time>2019-11-02T12:02:14Z</time>
      </trkpt>
      <trkpt lat="45.62887" lon="0.11383">
        <ele>38.644</ele>
        <time>2019-11-02T12:03:20Z</time>
      </trkpt>
      <trkpt lat="45.62919" lon="0.11418">
        <ele>40.758</ele>
        <time>2019-11-02T12:07:35Z</time>
      </trkpt>
      <trkpt lat="45.62858" lon="0.1135">
        <ele>44.536</ele>
        <time>2019-11-02T12:08:08Z</time>
      </trkpt>
      <trkpt lat="45.62802" lon="0.1129">
        <ele>44.392</ele>
        <time>2019-11-02T12:08:38Z</time>
      </trkpt>
      <trkpt lat="45.62751" lon="0.11232">
        <ele>46.712</ele>
        <time>2019-11-02T12:09:17Z</time>
      </trkpt>
      <trkpt lat="45.62713" lon="0.11202">
        <ele>45.1</ele>
        <time>2019-11-02T12:10:17Z</time>
      </trkpt>
      <trkpt lat="45.62687" lon="0.11191">
        <ele>46.754</ele>
        <time>2019-11-02T12:10:59Z</time>
      </trkpt>
      <trkpt lat="45.62642" lon="0.1118">
        <ele>46.3</ele>
        <time>2019-11-02T12:11:38Z</time>
      </trkpt>
      <trkpt lat="45.62606" lon="0.11118">
        <ele>45.341</ele>
        <time>2019-11-02T12:12:41Z</time>
      </trkpt>
      <trkpt lat="45.62556" lon="0.11072">
        <ele>46.276</ele>
        <time>2019-11-02T12:13:41Z</time>
      </trkpt>
      <trkpt lat="45.62519" lon="0.11041">
        <ele>46.14</ele>
        <time>2019-11-02T12:15:05Z</time>
      </trkpt>
      <trkpt lat="45.6244" lon="0.10994">
        <ele>55.065</ele>
        <time>2019-11-02T12:15:38Z</time>
      </trkpt>
      <trkpt lat="45.62376" lon="0.11076">
        <ele>51.361</ele>
        <time>2019-11-02T12:16:08Z</time>
      </trkpt>
      <trkpt lat="45.6239" lon="0.11208">
        <ele>48.729</ele>
        <time>2019-11-02T12:16:38Z</time>
      </trkpt>
      <trkpt lat="45.62567" lon="0.11446">
        <ele>45.729</ele>
        <time>2019-11-02T12:17:08Z</time>
      </trkpt>
      <trkpt lat="45.62724" lon="0.11635">
        <ele>43.674</ele>
        <time>2019-11-02T12:17:38Z</time>
      </trkpt>
      <trkpt lat="45.62801" lon="0.11731">
        <ele>44.673</ele>
        <time>2019-11-02T12:18:08Z</time>
      </trkpt>
      <trkpt lat="45.62864" lon="0.11765">
        <ele>48.719</ele>
        <time>2019-11-02T12:18:38Z</time>
      </trkpt>
      <trkpt lat="45.6295" lon="0.11613">
        <ele>47.833</ele>
        <time>2019-11-02T12:19:08Z</time>
      </trkpt>
      <trkpt lat="45.63005" lon="0.11697">
        <ele>49.628</ele>
        <time>2019-11-02T12:19:38Z</time>
      </trkpt>
      <trkpt lat="45.63121" lon="0.11772">
        <ele>51.423</ele>
        <time>2019-11-02T12:20:08Z</time>
      </trkpt>
      <trkpt lat="45.6317" lon="0.11702">
        <ele>47.957</ele>
        <time>2019-11-02T12:20:38Z</time>
      </trkpt>
      <trkpt lat="45.63242" lon="0.1149">
        <ele>44.951</ele>
        <time>2019-11-02T12:21:08Z</time>
      </trkpt>
      <trkpt lat="45.63309" lon="0.11393">
        <ele>45.232</ele>
        <time>2019-11-02T12:21:38Z</time>
      </trkpt>
      <trkpt lat="45.6339" lon="0.11276">
        <ele>49.441</ele>
        <time>2019-11-02T12:22:11Z</time>
      </trkpt>
      <trkpt lat="45.63497" lon="0.11226">
        <ele>58.663</ele>
        <time>2019-11-02T12:22:41Z</time>
      </trkpt>
      <trkpt lat="45.63613" lon="0.11277">
        <ele>57.956</ele>
        <time>2019-11-02T12:23:11Z</time>
      </trkpt>
      <trkpt lat="45.63719" lon="0.11224">
        <ele>61.355</ele>
        <time>2019-11-02T12:23:41Z</time>
      </trkpt>
      <trkpt lat="45.63811" lon="0.11089">
        <ele>58.474</ele>
        <time>2019-11-02T12:24:11Z</time>
      </trkpt>
      <trkpt lat="45.63903" lon="0.10977">
        <ele>59.474</ele>
        <time>2019-11-02T12:24:41Z</time>
      </trkpt>
      <trkpt lat="45.63894" lon="0.10972">
        <ele>65.584</ele>
        <time>2019-11-02T12:25:17Z</time>
      </trkpt>
      <trkpt lat="45.63994" lon="0.10978">
        <ele>68.186</ele>
        <time>2019-11-02T12:25:47Z</time>
      </trkpt>
      <trkpt lat="45.64029" lon="0.11134">
        <ele>55.783</ele>
        <time>2019-11-02T12:26:17Z</time>
      </trkpt>
      <trkpt lat="45.64142" lon="0.11021">
        <ele>46.911</ele>
        <time>2019-11-02T12:26:47Z</time>
      </trkpt>
      <trkpt lat="45.64225" lon="0.10845">
        <ele>44.231</ele>
        <time>2019-11-02T12:27:17Z</time>
      </trkpt>
      <trkpt lat="45.64266" lon="0.10783">
        <ele>46.233</ele>
        <time>2019-11-02T12:30:05Z</time>
      </trkpt>
      <trkpt lat="45.6436" lon="0.10867">
        <ele>40.352</ele>
        <time>2019-11-02T12:30:35Z</time>
      </trkpt>
      <trkpt lat="45.64466" lon="0.10884">
        <ele>35.491</ele>
        <time>2019-11-02T12:31:08Z</time>
      </trkpt>
      <trkpt lat="45.64547" lon="0.10845">
        <ele>37.37</ele>
        <time>2019-11-02T12:31:38Z</time>
      </trkpt>
      <trkpt lat="45.6459" lon="0.10756">
        <ele>41.258</ele>
        <time>2019-11-02T12:32:08Z</time>
      </trkpt>
      <trkpt lat="45.64673" lon="0.10683">
        <ele>46.814</ele>
        <time>2019-11-02T12:32:38Z</time>
      </trkpt>
      <trkpt lat="45.64828" lon="0.10606">
        <ele>45.436</ele>
        <time>2019-11-02T12:33:08Z</time>
      </trkpt>
      <trkpt lat="45.64971" lon="0.10692">
        <ele>42.176</ele>
        <time>2019-11-02T12:33:38Z</time>
      </trkpt>
      <trkpt lat="45.65206" lon="0.10659">
        <ele>36.97</ele>
        <time>2019-11-02T12:34:08Z</time>
      </trkpt>
      <trkpt lat="45.65299" lon="0.10634">
        <ele>32.266</ele>
        <time>2019-11-02T12:34:38Z</time>
      </trkpt>
      <trkpt lat="45.65277" lon="0.10512">
        <ele>34.903</ele>
        <time>2019-11-02T12:35:08Z</time>
      </trkpt>
      <trkpt lat="45.65231" lon="0.10323">
        <ele>33.352</ele>
        <time>2019-11-02T12:35:38Z</time>
      </trkpt>
      <trkpt lat="45.65149" lon="0.10145">
        <ele>34.885</ele>
        <time>2019-11-02T12:36:08Z</time>
      </trkpt>
      <trkpt lat="45.65076" lon="0.09987">
        <ele>31.826</ele>
        <time>2019-11-02T12:36:38Z</time>
      </trkpt>
      <trkpt lat="45.65034" lon="0.09833">
        <ele>34.508</ele>
        <time>2019-11-02T12:37:08Z</time>
      </trkpt>
      <trkpt lat="45.65024" lon="0.09699">
        <ele>38.41</ele>
        <time>2019-11-02T12:37:38Z</time>
      </trkpt>
      <trkpt lat="45.65016" lon="0.09559">
        <ele>38.4</ele>
        <time>2019-11-02T12:38:11Z</time>
      </trkpt>
      <trkpt lat="45.65009" lon="0.09426">
        <ele>38.867</ele>
        <time>2019-11-02T12:38:41Z</time>
      </trkpt>
      <trkpt lat="45.64999" lon="0.09289">
        <ele>42.065</ele>
        <time>2019-11-02T12:39:11Z</time>
      </trkpt>
      <trkpt lat="45.64992" lon="0.09163">
        <ele>46.466</ele>
        <time>2019-11-02T12:39:41Z</time>
      </trkpt>
      <trkpt lat="45.64987" lon="0.09044">
        <ele>46.598</ele>
        <time>2019-11-02T12:40:11Z</time>
      </trkpt>
      <trkpt lat="45.65008" lon="0.08945">
        <ele>55.977</ele>
        <time>2019-11-02T12:40:41Z</time>
      </trkpt>
      <trkpt lat="45.65047" lon="0.08818">
        <ele>51.293</ele>
        <time>2019-11-02T12:41:11Z</time>
      </trkpt>
      <trkpt lat="45.65095" lon="0.08645">
        <ele>49.626</ele>
        <time>2019-11-02T12:41:41Z</time>
      </trkpt>
      <trkpt lat="45.65129" lon="0.08549">
        <ele>55.741</ele>
        <time>2019-11-02T12:42:11Z</time>
      </trkpt>
      <trkpt lat="45.65091" lon="0.08291">
        <ele>51.707</ele>
        <time>2019-11-02T12:42:41Z</time>
      </trkpt>
      <trkpt lat="45.6502" lon="0.07896">
        <ele>31.072</ele>
        <time>2019-11-02T12:43:11Z</time>
      </trkpt>
      <trkpt lat="45.64989" lon="0.07725">
        <ele>31.802</ele>
        <time>2019-11-02T12:43:41Z</time>
      </trkpt>
      <trkpt lat="45.64976" lon="0.07665">
        <ele>36.126</ele>
        <time>2019-11-02T12:46:59Z</time>
      </trkpt>
      <trkpt lat="45.64956" lon="0.07565">
        <ele>39.734</ele>
        <time>2019-11-02T12:48:08Z</time>
      </trkpt>
      <trkpt lat="45.64941" lon="0.0747">
        <ele>47.401</ele>
        <time>2019-11-02T12:49:08Z</time>
      </trkpt>
      <trkpt lat="45.64929" lon="0.07416">
        <ele>49.416</ele>
        <time>2019-11-02T12:49:59Z</time>
      </trkpt>
      <trkpt lat="45.64904" lon="0.07329">
        <ele>57.626</ele>
        <time>2019-11-02T12:50:29Z</time>
      </trkpt>
      <trkpt lat="45.6487" lon="0.07226">
        <ele>52.595</ele>
        <time>2019-11-02T12:50:59Z</time>
      </trkpt>
      <trkpt lat="45.64833" lon="0.0713">
        <ele>56.235</ele>
        <time>2019-11-02T12:51:29Z</time>
      </trkpt>
      <trkpt lat="45.64796" lon="0.07033">
        <ele>54.532</ele>
        <time>2019-11-02T12:51:59Z</time>
      </trkpt>
      <trkpt lat="45.64729" lon="0.0685">
        <ele>47.738</ele>
        <time>2019-11-02T12:52:29Z</time>
      </trkpt>
      <trkpt lat="45.64663" lon="0.06684">
        <ele>45.928</ele>
        <time>2019-11-02T12:52:59Z</time>
      </trkpt>
      <trkpt lat="45.64578" lon="0.06504">
        <ele>46.334</ele>
        <time>2019-11-02T12:53:29Z</time>
      </trkpt>
      <trkpt lat="45.6445" lon="0.0629">
        <ele>40.057</ele>
        <time>2019-11-02T12:53:59Z</time>
      </trkpt>
      <trkpt lat="45.64394" lon="0.06097">
        <ele>35.833</ele>
        <time>2019-11-02T12:54:29Z</time>
      </trkpt>
      <trkpt lat="45.64356" lon="0.05898">
        <ele>34.331</ele>
        <time>2019-11-02T12:54:59Z</time>
      </trkpt>
      <trkpt lat="45.64339" lon="0.05713">
        <ele>36.892</ele>
        <time>2019-11-02T12:55:32Z</time>
      </trkpt>
      <trkpt lat="45.6432" lon="0.05557">
        <ele>39.131</ele>
        <time>2019-11-02T12:56:02Z</time>
      </trkpt>
      <trkpt lat="45.64299" lon="0.05336">
        <ele>35.135</ele>
        <time>2019-11-02T12:56:32Z</time>
      </trkpt>
      <trkpt lat="45.64265" lon="0.05197">
        <ele>38.044</ele>
        <time>2019-11-02T12:57:02Z</time>
      </trkpt>
      <trkpt lat="45.64217" lon="0.05042">
        <ele>40.616</ele>
        <time>2019-11-02T12:57:32Z</time>
      </trkpt>
      <trkpt lat="45.6416" lon="0.04903">
        <ele>39.311</ele>
        <time>2019-11-02T12:58:02Z</time>
      </trkpt>
      <trkpt lat="45.64114" lon="0.04753">
        <ele>38.72</ele>
        <time>2019-11-02T12:58:32Z</time>
      </trkpt>
      <trkpt lat="45.64113" lon="0.04602">
        <ele>43.958</ele>
        <time>2019-11-02T12:59:02Z</time>
      </trkpt>
      <trkpt lat="45.64176" lon="0.04574">
        <ele>52.953</ele>
        <time>2019-11-02T12:59:32Z</time>
      </trkpt>
      <trkpt lat="45.6424" lon="0.04531">
        <ele>51.601</ele>
        <time>2019-11-02T13:00:02Z</time>
      </trkpt>
      <trkpt lat="45.64297" lon="0.04477">
        <ele>50.53</ele>
        <time>2019-11-02T13:00:32Z</time>
      </trkpt>
      <trkpt lat="45.64345" lon="0.04398">
        <ele>55.817</ele>
        <time>2019-11-02T13:01:02Z</time>
      </trkpt>
      <trkpt lat="45.64378" lon="0.04304">
        <ele>59.419</ele>
        <time>2019-11-02T13:01:32Z</time>
      </trkpt>
      <trkpt lat="45.64381" lon="0.04223">
        <ele>55.288</ele>
        <time>2019-11-02T13:02:02Z</time>
      </trkpt>
      <trkpt lat="45.64398" lon="0.04138">
        <ele>58.829</ele>
        <time>2019-11-02T13:02:35Z</time>
      </trkpt>
      <trkpt lat="45.64441" lon="0.04067">
        <ele>63.262</ele>
        <time>2019-11-02T13:03:05Z</time>
      </trkpt>
      <trkpt lat="45.64459" lon="0.03989">
        <ele>67.551</ele>
        <time>2019-11-02T13:03:35Z</time>
      </trkpt>
      <trkpt lat="45.64474" lon="0.03909">
        <ele>68.262</ele>
        <time>2019-11-02T13:04:05Z</time>
      </trkpt>
      <trkpt lat="45.64481" lon="0.03828">
        <ele>70.891</ele>
        <time>2019-11-02T13:04:35Z</time>
      </trkpt>
      <trkpt lat="45.64471" lon="0.03749">
        <ele>70.968</ele>
        <time>2019-11-02T13:05:05Z</time>
      </trkpt>
      <trkpt lat="45.64462" lon="0.03668">
        <ele>74.613</ele>
        <time>2019-11-02T13:05:38Z</time>
      </trkpt>
      <trkpt lat="45.64456" lon="0.03584">
        <ele>78.315</ele>
        <time>2019-11-02T13:06:11Z</time>
      </trkpt>
      <trkpt lat="45.64488" lon="0.03531">
        <ele>84.553</ele>
        <time>2019-11-02T13:06:41Z</time>
      </trkpt>
      <trkpt lat="45.64548" lon="0.03492">
        <ele>85.282</ele>
        <time>2019-11-02T13:07:11Z</time>
      </trkpt>
      <trkpt lat="45.64591" lon="0.03349">
        <ele>85.029</ele>
        <time>2019-11-02T13:07:41Z</time>
      </trkpt>
      <trkpt lat="45.64488" lon="0.03019">
        <ele>71.154</ele>
        <time>2019-11-02T13:08:11Z</time>
      </trkpt>
      <trkpt lat="45.64456" lon="0.02664">
        <ele>59.102</ele>
        <time>2019-11-02T13:08:41Z</time>
      </trkpt>
      <trkpt lat="45.64321" lon="0.0242">
        <ele>49.91</ele>
        <time>2019-11-02T13:09:14Z</time>
      </trkpt>
      <trkpt lat="45.64218" lon="0.02254">
        <ele>44.672</ele>
        <time>2019-11-02T13:09:44Z</time>
      </trkpt>
      <trkpt lat="45.64137" lon="0.02059">
        <ele>42.638</ele>
        <time>2019-11-02T13:10:14Z</time>
      </trkpt>
      <trkpt lat="45.64206" lon="0.01789">
        <ele>41.838</ele>
        <time>2019-11-02T13:10:44Z</time>
      </trkpt>
      <trkpt lat="45.64161" lon="0.01619">
        <ele>40.679</ele>
        <time>2019-11-02T13:11:14Z</time>
      </trkpt>
      <trkpt lat="45.64034" lon="0.01489">
        <ele>43.716</ele>
        <time>2019-11-02T13:11:44Z</time>
      </trkpt>
      <trkpt lat="45.63929" lon="0.01265">
        <ele>36.602</ele>
        <time>2019-11-02T13:12:14Z</time>
      </trkpt>
      <trkpt lat="45.63827" lon="0.01109">
        <ele>32.441</ele>
        <time>2019-11-02T13:12:44Z</time>
      </trkpt>
      <trkpt lat="45.63753" lon="0.00908">
        <ele>31.588</ele>
        <time>2019-11-02T13:13:14Z</time>
      </trkpt>
      <trkpt lat="45.63672" lon="0.00704">
        <ele>39.511</ele>
        <time>2019-11-02T13:13:44Z</time>
      </trkpt>
      <trkpt lat="45.63668" lon="0.00476">
        <ele>28.766</ele>
        <time>2019-11-02T13:14:14Z</time>
      </trkpt>
      <trkpt lat="45.63627" lon="0.00266">
        <ele>25.432</ele>
        <time>2019-11-02T13:14:44Z</time>
      </trkpt>
      <trkpt lat="45.63552" lon="0.00063">
        <ele>26.008</ele>
        <time>2019-11-02T13:15:14Z</time>
      </trkpt>
      <trkpt lat="45.635" lon="-0.00115">
        <ele>28.437</ele>
        <time>2019-11-02T13:15:47Z</time>
      </trkpt>
      <trkpt lat="45.6346" lon="-0.00296">
        <ele>23.076</ele>
        <time>2019-11-02T13:16:17Z</time>
      </trkpt>
      <trkpt lat="45.63456" lon="-0.00413">
        <ele>28.107</ele>
        <time>2019-11-02T13:16:47Z</time>
      </trkpt>
      <trkpt lat="45.63459" lon="-0.00562">
        <ele>33.613</ele>
        <time>2019-11-02T13:17:17Z</time>
      </trkpt>
      <trkpt lat="45.63455" lon="-0.00855">
        <ele>32.961</ele>
        <time>2019-11-02T13:17:47Z</time>
      </trkpt>
      <trkpt lat="45.63425" lon="-0.01082">
        <ele>26.773</ele>
        <time>2019-11-02T13:18:17Z</time>
      </trkpt>
      <trkpt lat="45.63383" lon="-0.01267">
        <ele>24.236</ele>
        <time>2019-11-02T13:18:47Z</time>
      </trkpt>
      <trkpt lat="45.63338" lon="-0.01424">
        <ele>22.227</ele>
        <time>2019-11-02T13:19:17Z</time>
      </trkpt>
      <trkpt lat="45.63293" lon="-0.01573">
        <ele>19.946</ele>
        <time>2019-11-02T13:19:47Z</time>
      </trkpt>
      <trkpt lat="45.63208" lon="-0.0176">
        <ele>25.246</ele>
        <time>2019-11-02T13:20:17Z</time>
      </trkpt>
      <trkpt lat="45.63104" lon="-0.0196">
        <ele>28.813</ele>
        <time>2019-11-02T13:20:47Z</time>
      </trkpt>
      <trkpt lat="45.63" lon="-0.02128">
        <ele>26.323</ele>
        <time>2019-11-02T13:21:17Z</time>
      </trkpt>
      <trkpt lat="45.62864" lon="-0.02275">
        <ele>20.75</ele>
        <time>2019-11-02T13:21:47Z</time>
      </trkpt>
      <trkpt lat="45.6274" lon="-0.02406">
        <ele>19.192</ele>
        <time>2019-11-02T13:22:17Z</time>
      </trkpt>
      <trkpt lat="45.62607" lon="-0.0254">
        <ele>18.502</ele>
        <time>2019-11-02T13:22:50Z</time>
      </trkpt>
      <trkpt lat="45.62538" lon="-0.02679">
        <ele>22.919</ele>
        <time>2019-11-02T13:23:20Z</time>
      </trkpt>
      <trkpt lat="45.62415" lon="-0.02758">
        <ele>20.051</ele>
        <time>2019-11-02T13:23:50Z</time>
      </trkpt>
      <trkpt lat="45.623" lon="-0.02794">
        <ele>26.891</ele>
        <time>2019-11-02T13:24:20Z</time>
      </trkpt>
      <trkpt lat="45.62232" lon="-0.02689">
        <ele>29.214</ele>
        <time>2019-11-02T13:24:50Z</time>
      </trkpt>
      <trkpt lat="45.62238" lon="-0.02564">
        <ele>23.674</ele>
        <time>2019-11-02T13:25:20Z</time>
      </trkpt>
      <trkpt lat="45.6226" lon="-0.02292">
        <ele>21.745</ele>
        <time>2019-11-02T13:25:50Z</time>
      </trkpt>
      <trkpt lat="45.62176" lon="-0.02083">
        <ele>23.494</ele>
        <time>2019-11-02T13:26:20Z</time>
      </trkpt>
      <trkpt lat="45.62088" lon="-0.01897">
        <ele>22.612</ele>
        <time>2019-11-02T13:26:50Z</time>
      </trkpt>
      <trkpt lat="45.62019" lon="-0.01767">
        <ele>26.037</ele>
        <time>2019-11-02T13:27:20Z</time>
      </trkpt>
      <trkpt lat="45.61911" lon="-0.01814">
        <ele>22.059</ele>
        <time>2019-11-02T13:27:50Z</time>
      </trkpt>
      <trkpt lat="45.6182" lon="-0.01914">
        <ele>27.968</ele>
        <time>2019-11-02T13:28:20Z</time>
      </trkpt>
      <trkpt lat="45.61666" lon="-0.01949">
        <ele>23.01</ele>
        <time>2019-11-02T13:28:50Z</time>
      </trkpt>
      <trkpt lat="45.61511" lon="-0.02009">
        <ele>20.699</ele>
        <time>2019-11-02T13:29:23Z</time>
      </trkpt>
      <trkpt lat="45.61379" lon="-0.02087">
        <ele>20.433</ele>
        <time>2019-11-02T13:29:53Z</time>
      </trkpt>
      <trkpt lat="45.61262" lon="-0.02157">
        <ele>20.969</ele>
        <time>2019-11-02T13:30:23Z</time>
      </trkpt>
      <trkpt lat="45.61137" lon="-0.02212">
        <ele>24.435</ele>
        <time>2019-11-02T13:30:53Z</time>
      </trkpt>
      <trkpt lat="45.60989" lon="-0.02213">
        <ele>21.972</ele>
        <time>2019-11-02T13:31:23Z</time>
      </trkpt>
      <trkpt lat="45.60844" lon="-0.02283">
        <ele>24.312</ele>
        <time>2019-11-02T13:31:53Z</time>
      </trkpt>
      <trkpt lat="45.60739" lon="-0.02361">
        <ele>20.158</ele>
        <time>2019-11-02T13:32:23Z</time>
      </trkpt>
      <trkpt lat="45.60643" lon="-0.02443">
        <ele>25.828</ele>
        <time>2019-11-02T13:32:53Z</time>
      </trkpt>
      <trkpt lat="45.60523" lon="-0.02544">
        <ele>24.154</ele>
        <time>2019-11-02T13:33:23Z</time>
      </trkpt>
      <trkpt lat="45.60396" lon="-0.02631">
        <ele>18.614</ele>
        <time>2019-11-02T13:33:53Z</time>
      </trkpt>
      <trkpt lat="45.60272" lon="-0.02723">
        <ele>17.415</ele>
        <time>2019-11-02T13:34:23Z</time>
      </trkpt>
      <trkpt lat="45.60148" lon="-0.02847">
        <ele>20.164</ele>
        <time>2019-11-02T13:34:53Z</time>
      </trkpt>
      <trkpt lat="45.60046" lon="-0.02984">
        <ele>16.653</ele>
        <time>2019-11-02T13:35:23Z</time>
      </trkpt>
      <trkpt lat="45.59972" lon="-0.03172">
        <ele>15.84</ele>
        <time>2019-11-02T13:35:56Z</time>
      </trkpt>
      <trkpt lat="45.59893" lon="-0.0333">
        <ele>16.733</ele>
        <time>2019-11-02T13:36:26Z</time>
      </trkpt>
      <trkpt lat="45.59806" lon="-0.03466">
        <ele>16.56</ele>
        <time>2019-11-02T13:36:56Z</time>
      </trkpt>
      <trkpt lat="45.59734" lon="-0.03586">
        <ele>16.413</ele>
        <time>2019-11-02T13:37:26Z</time>
      </trkpt>
      <trkpt lat="45.59675" lon="-0.03683">
        <ele>19.031</ele>
        <time>2019-11-02T13:37:56Z</time>
      </trkpt>
      <trkpt lat="45.59648" lon="-0.03867">
        <ele>19.438</ele>
        <time>2019-11-02T13:38:26Z</time>
      </trkpt>
      <trkpt lat="45.59682" lon="-0.04052">
        <ele>24.815</ele>
        <time>2019-11-02T13:38:56Z</time>
      </trkpt>
      <trkpt lat="45.59699" lon="-0.04255">
        <ele>23.62</ele>
        <time>2019-11-02T13:39:26Z</time>
      </trkpt>
      <trkpt lat="45.59707" lon="-0.0447">
        <ele>26.829</ele>
        <time>2019-11-02T13:39:56Z</time>
      </trkpt>
      <trkpt lat="45.59714" lon="-0.04644">
        <ele>25.916</ele>
        <time>2019-11-02T13:40:26Z</time>
      </trkpt>
      <trkpt lat="45.59682" lon="-0.04753">
        <ele>28.285</ele>
        <time>2019-11-02T13:40:56Z</time>
      </trkpt>
      <trkpt lat="45.59648" lon="-0.04836">
        <ele>28.101</ele>
        <time>2019-11-02T13:41:29Z</time>
      </trkpt>
      <trkpt lat="45.59643" lon="-0.04926">
        <ele>40.408</ele>
        <time>2019-11-02T13:41:59Z</time>
      </trkpt>
      <trkpt lat="45.59662" lon="-0.05028">
        <ele>47.303</ele>
        <time>2019-11-02T13:42:29Z</time>
      </trkpt>
      <trkpt lat="45.59805" lon="-0.05145">
        <ele>41.674</ele>
        <time>2019-11-02T13:43:02Z</time>
      </trkpt>
      <trkpt lat="45.59918" lon="-0.05164">
        <ele>25.384</ele>
        <time>2019-11-02T13:43:32Z</time>
      </trkpt>
      <trkpt lat="45.59875" lon="-0.05046">
        <ele>26.546</ele>
        <time>2019-11-02T13:44:02Z</time>
      </trkpt>
      <trkpt lat="45.59867" lon="-0.0502">
        <ele>26.604</ele>
        <time>2019-11-02T14:05:17Z</time>
      </trkpt>
      <trkpt lat="45.5994" lon="-0.05053">
        <ele>31.027</ele>
        <time>2019-11-02T14:05:47Z</time>
      </trkpt>
      <trkpt lat="45.60031" lon="-0.05092">
        <ele>29.16</ele>
        <time>2019-11-02T14:06:17Z</time>
      </trkpt>
      <trkpt lat="45.60105" lon="-0.05147">
        <ele>26.996</ele>
        <time>2019-11-02T14:06:47Z</time>
      </trkpt>
      <trkpt lat="45.6016" lon="-0.05053">
        <ele>26.16</ele>
        <time>2019-11-02T14:07:17Z</time>
      </trkpt>
      <trkpt lat="45.60091" lon="-0.04889">
        <ele>32.614</ele>
        <time>2019-11-02T14:07:47Z</time>
      </trkpt>
      <trkpt lat="45.6007" lon="-0.04729">
        <ele>31.377</ele>
        <time>2019-11-02T14:08:17Z</time>
      </trkpt>
      <trkpt lat="45.60074" lon="-0.04651">
        <ele>29.04</ele>
        <time>2019-11-02T14:11:35Z</time>
      </trkpt>
      <trkpt lat="45.60066" lon="-0.0474">
        <ele>27.08</ele>
        <time>2019-11-02T14:12:11Z</time>
      </trkpt>
      <trkpt lat="45.60097" lon="-0.04907">
        <ele>23.85</ele>
        <time>2019-11-02T14:12:41Z</time>
      </trkpt>
      <trkpt lat="45.60154" lon="-0.05059">
        <ele>25.764</ele>
        <time>2019-11-02T14:13:14Z</time>
      </trkpt>
      <trkpt lat="45.60139" lon="-0.05104">
        <ele>23.143</ele>
        <time>2019-11-02T14:13:47Z</time>
      </trkpt>
      <trkpt lat="45.6006" lon="-0.05136">
        <ele>24.693</ele>
        <time>2019-11-02T14:14:17Z</time>
      </trkpt>
      <trkpt lat="45.59957" lon="-0.05088">
        <ele>22.669</ele>
        <time>2019-11-02T14:14:47Z</time>
      </trkpt>
      <trkpt lat="45.59899" lon="-0.05204">
        <ele>22.695</ele>
        <time>2019-11-02T14:15:17Z</time>
      </trkpt>
      <trkpt lat="45.59938" lon="-0.05263">
        <ele>28.276</ele>
        <time>2019-11-02T14:15:47Z</time>
      </trkpt>
      <trkpt lat="45.60002" lon="-0.05362">
        <ele>34.399</ele>
        <time>2019-11-02T14:16:17Z</time>
      </trkpt>
      <trkpt lat="45.60007" lon="-0.05463">
        <ele>35.965</ele>
        <time>2019-11-02T14:16:47Z</time>
      </trkpt>
      <trkpt lat="45.59997" lon="-0.05498">
        <ele>31.202</ele>
        <time>2019-11-02T14:17:23Z</time>
      </trkpt>
      <trkpt lat="45.59992" lon="-0.05503">
        <ele>30.474</ele>
        <time>2019-11-02T14:19:53Z</time>
      </trkpt>
      <trkpt lat="45.60003" lon="-0.05424">
        <ele>42.231</ele>
        <time>2019-11-02T14:20:26Z</time>
      </trkpt>
      <trkpt lat="45.59998" lon="-0.05467">
        <ele>41.698</ele>
        <time>2019-11-02T14:21:02Z</time>
      </trkpt>
      <trkpt lat="45.60013" lon="-0.05357">
        <ele>39.699</ele>
        <time>2019-11-02T14:21:32Z</time>
      </trkpt>
      <trkpt lat="45.59922" lon="-0.0525">
        <ele>29.267</ele>
        <time>2019-11-02T14:22:05Z</time>
      </trkpt>
      <trkpt lat="45.59912" lon="-0.05172">
        <ele>25.687</ele>
        <time>2019-11-02T14:22:38Z</time>
      </trkpt>
      <trkpt lat="45.59963" lon="-0.05059">
        <ele>25.696</ele>
        <time>2019-11-02T14:23:08Z</time>
      </trkpt>
      <trkpt lat="45.59964" lon="-0.05088">
        <ele>31.715</ele>
        <time>2019-11-02T14:23:59Z</time>
      </trkpt>
      <trkpt lat="45.59943" lon="-0.05041">
        <ele>29.014</ele>
        <time>2019-11-02T14:25:11Z</time>
      </trkpt>
      <trkpt lat="45.59954" lon="-0.05056">
        <ele>26.505</ele>
        <time>2019-11-02T14:26:20Z</time>
      </trkpt>
      <trkpt lat="45.59967" lon="-0.05063">
        <ele>23.332</ele>
        <time>2019-11-02T14:27:53Z</time>
      </trkpt>
    </trkseg>
  </trk>
</gpx>